Time;durP1;ratioP1;P1;durP2;ratioP2;P2;SDS_P1;SDS_P2;PMS_P1;PMS_P2;Temp;Humidity;BMP_temperature;BMP_pressure;BME280_temperature;BME280_humidity;BME280_pressure;Samples;Min_cycle;Max_cycle;Signal;HPM_P1;HPM_P2
2021/12/20 00:01:44;;;;;;;28.77;22.52;;;;;;;;;;5118496;27;20019;-37
2021/12/20 00:04:10;;;;;;;36.67;21.13;;;;;;;;;;5113003;27;20024;-36
2021/12/20 00:06:35;;;;;;;29.80;22.45;;;;;;;;;;5110852;27;20031;-37
2021/12/20 00:09:01;;;;;;;30.38;21.52;;;;;;;;;;5114335;27;20463;-37
2021/12/20 00:11:26;;;;;;;33.40;21.85;;;;;;;;;;5118819;27;20032;-36
2021/12/20 00:13:51;;;;;;;38.72;20.00;;;;;;;;;;5114346;27;20346;-37
2021/12/20 00:16:17;;;;;;;23.90;18.90;;;;;;;;;;5115319;27;20109;-36
2021/12/20 00:18:43;;;;;;;36.95;18.17;;;;;;;;;;5114161;27;20039;-39
2021/12/20 00:21:09;;;;;;;24.20;17.25;;;;;;;;;;5115038;27;20055;-37
2021/12/20 00:23:34;;;;;;;20.17;14.05;;;;;;;;;;5113437;27;20052;-36
2021/12/20 00:25:59;;;;;;;20.85;14.60;;;;;;;;;;5114630;27;20019;-36
2021/12/20 00:28:25;;;;;;;20.58;15.70;;;;;;;;;;5115438;27;20342;-36
2021/12/20 00:30:50;;;;;;;23.13;20.52;;;;;;;;;;5115457;27;20026;-36
2021/12/20 00:33:15;;;;;;;27.17;22.17;;;;;;;;;;5115618;27;20123;-37
2021/12/20 00:35:41;;;;;;;19.98;17.88;;;;;;;;;;5114827;27;20172;-36
2021/12/20 00:40:50;;;;;;;23.58;15.82;;;;;;;;;;5115470;27;20026;-37
2021/12/20 00:43:16;;;;;;;32.40;23.70;;;;;;;;;;5116107;27;20023;-36
2021/12/20 00:45:41;;;;;;;25.27;21.30;;;;;;;;;;5114449;27;20035;-36
2021/12/20 00:48:07;;;;;;;28.05;24.98;;;;;;;;;;5109119;27;20102;-37
2021/12/20 00:50:32;;;;;;;20.83;16.92;;;;;;;;;;5112853;27;20028;-37
2021/12/20 00:52:58;;;;;;;42.42;31.05;;;;;;;;;;5113053;27;21016;-36
2021/12/20 00:55:24;;;;;;;35.65;28.27;;;;;;;;;;5110904;27;20052;-36
2021/12/20 00:57:50;;;;;;;38.65;31.67;;;;;;;;;;5112382;27;20019;-37
2021/12/20 01:00:18;;;;;;;36.15;25.17;;;;;;;;;;5117288;27;20495;-37
2021/12/20 01:02:43;;;;;;;29.77;26.45;;;;;;;;;;5114860;27;20081;-37
2021/12/20 01:05:09;;;;;;;31.98;20.35;;;;;;;;;;5113442;27;20747;-36
2021/12/20 01:07:34;;;;;;;24.40;19.75;;;;;;;;;;5117370;27;20064;-36
2021/12/20 01:10:03;;;;;;;19.85;16.50;;;;;;;;;;5115212;27;20061;-36
2021/12/20 01:12:34;;;;;;;27.95;18.67;;;;;;;;;;5112077;27;20070;-36
2021/12/20 01:15:01;;;;;;;29.40;24.15;;;;;;;;;;5117073;27;20111;-36
2021/12/20 01:17:26;;;;;;;35.08;25.02;;;;;;;;;;5111714;27;20312;-36
2021/12/20 01:19:52;;;;;;;30.95;26.08;;;;;;;;;;5110533;27;20571;-36
2021/12/20 01:22:17;;;;;;;29.90;20.55;;;;;;;;;;5112966;27;20023;-36
2021/12/20 01:24:42;;;;;;;23.88;18.98;;;;;;;;;;5113972;27;20027;-37
2021/12/20 01:27:08;;;;;;;24.35;19.00;;;;;;;;;;5114998;27;20027;-36
2021/12/20 01:29:33;;;;;;;18.25;16.45;;;;;;;;;;5116202;27;20011;-36
2021/12/20 01:31:58;;;;;;;17.33;14.38;;;;;;;;;;5116641;27;20020;-36
2021/12/20 01:34:24;;;;;;;14.00;11.63;;;;;;;;;;5111579;27;20528;-37
2021/12/20 01:36:49;;;;;;;14.27;11.07;;;;;;;;;;5112027;27;20092;-36
2021/12/20 01:39:15;;;;;;;9.95;8.57;;;;;;;;;;5112673;27;20091;-37
2021/12/20 01:41:41;;;;;;;14.90;11.00;;;;;;;;;;5111796;27;20119;-37
2021/12/20 01:44:06;;;;;;;13.38;11.88;;;;;;;;;;5111909;27;20746;-37
2021/12/20 01:46:32;;;;;;;12.70;10.60;;;;;;;;;;5116053;27;20518;-37
2021/12/20 01:48:59;;;;;;;14.57;12.93;;;;;;;;;;5110922;27;20011;-37
2021/12/20 01:54:02;;;;;;;9.57;7.07;;;;;;;;;;5112742;27;20108;-41
2021/12/20 01:56:29;;;;;;;17.02;7.93;;;;;;;;;;5115324;27;20027;-36
2021/12/20 01:59:04;;;;;;;25.92;23.45;;;;;;;;;;5112828;27;20894;-36
2021/12/20 02:01:30;;;;;;;20.38;18.27;;;;;;;;;;5111929;27;20018;-37
2021/12/20 02:03:59;;;;;;;18.08;8.65;;;;;;;;;;5112083;27;20387;-36
2021/12/20 02:06:37;;;;;;;7.00;4.43;;;;;;;;;;5109013;27;20164;-37
2021/12/20 02:09:14;;;;;;;6.90;6.20;;;;;;;;;;5116440;27;20019;-37
2021/12/20 02:11:41;;;;;;;12.80;7.85;;;;;;;;;;5112486;27;20019;-36
2021/12/20 02:14:07;;;;;;;8.55;7.55;;;;;;;;;;5113688;27;20373;-36
2021/12/20 02:16:33;;;;;;;9.50;6.95;;;;;;;;;;5115599;27;20059;-36
2021/12/20 02:19:04;;;;;;;10.15;8.30;;;;;;;;;;5113481;27;20064;-36
2021/12/20 02:21:29;;;;;;;9.45;5.68;;;;;;;;;;5111815;27;20086;-37
2021/12/20 02:23:54;;;;;;;7.30;5.22;;;;;;;;;;5115899;27;20051;-36
2021/12/20 02:26:21;;;;;;;12.07;6.15;;;;;;;;;;5114023;27;20019;-38
2021/12/20 02:28:48;;;;;;;8.93;8.02;;;;;;;;;;5116787;27;20037;-36
2021/12/20 02:38:50;;;;;;;8.02;5.68;;;;;;;;;;5110119;28;20019;-37
2021/12/20 02:41:18;;;;;;;5.95;4.38;;;;;;;;;;5111882;28;20023;-37
2021/12/20 02:43:54;;;;;;;12.40;11.30;;;;;;;;;;5112185;28;20380;-37
2021/12/20 02:46:29;;;;;;;11.48;8.77;;;;;;;;;;5110353;28;20476;-36
2021/12/20 02:48:55;;;;;;;9.77;6.07;;;;;;;;;;5113491;28;20049;-37
2021/12/20 02:51:26;;;;;;;9.65;7.43;;;;;;;;;;5114751;28;20439;-37
2021/12/20 02:53:51;;;;;;;17.83;10.20;;;;;;;;;;5109333;28;20075;-37
2021/12/20 02:56:17;;;;;;;19.83;11.63;;;;;;;;;;5111504;28;20387;-37
2021/12/20 02:58:42;;;;;;;14.93;10.75;;;;;;;;;;5112130;28;20059;-37
2021/12/20 03:01:07;;;;;;;8.15;7.03;;;;;;;;;;5113721;28;20047;-36
2021/12/20 03:03:33;;;;;;;9.95;8.40;;;;;;;;;;5113581;28;20065;-36
2021/12/20 03:05:58;;;;;;;14.18;12.05;;;;;;;;;;5109603;28;20054;-36
2021/12/20 03:08:23;;;;;;;20.23;15.38;;;;;;;;;;5110166;28;20099;-37
2021/12/20 03:10:49;;;;;;;19.80;14.75;;;;;;;;;;5110581;28;20016;-36
2021/12/20 03:13:14;;;;;;;16.40;12.70;;;;;;;;;;5109877;28;20038;-37
2021/12/20 03:15:40;;;;;;;17.40;14.20;;;;;;;;;;5113168;28;20027;-36
2021/12/20 03:18:06;;;;;;;21.30;14.95;;;;;;;;;;5112363;27;20034;-37
2021/12/20 03:20:31;;;;;;;18.20;12.88;;;;;;;;;;5115765;27;20135;-37
2021/12/20 03:22:57;;;;;;;19.90;15.75;;;;;;;;;;5114425;27;20484;-37
2021/12/20 03:25:22;;;;;;;13.55;10.13;;;;;;;;;;5113937;27;20030;-36
2021/12/20 03:27:48;;;;;;;20.98;17.48;;;;;;;;;;5117048;27;20042;-38
2021/12/20 03:30:13;;;;;;;24.10;14.90;;;;;;;;;;5119085;27;20011;-37
2021/12/20 03:32:39;;;;;;;39.25;29.02;;;;;;;;;;5115282;27;20621;-37
2021/12/20 03:35:05;;;;;;;20.00;17.92;;;;;;;;;;5115994;27;20409;-38
2021/12/20 03:37:31;;;;;;;27.52;14.30;;;;;;;;;;5113086;27;20031;-37
2021/12/20 03:39:56;;;;;;;13.98;9.73;;;;;;;;;;5117000;27;20488;-38
2021/12/20 03:42:22;;;;;;;10.27;8.10;;;;;;;;;;5113566;27;20019;-38
2021/12/20 03:44:47;;;;;;;13.98;7.97;;;;;;;;;;5115411;27;20020;-38
2021/12/20 03:47:13;;;;;;;13.40;6.35;;;;;;;;;;5118929;27;20023;-37
2021/12/20 03:49:42;;;;;;;12.15;5.82;;;;;;;;;;5119297;27;20026;-38
2021/12/20 03:52:07;;;;;;;10.77;8.00;;;;;;;;;;5116188;27;20047;-37
2021/12/20 03:54:33;;;;;;;10.52;9.45;;;;;;;;;;5112978;27;20509;-37
2021/12/20 03:56:58;;;;;;;19.58;9.10;;;;;;;;;;5115029;27;20027;-37
2021/12/20 03:59:24;;;;;;;13.20;9.52;;;;;;;;;;5116201;27;20023;-37
2021/12/20 04:01:50;;;;;;;16.73;10.07;;;;;;;;;;5115083;27;20118;-38
2021/12/20 04:04:15;;;;;;;18.83;11.20;;;;;;;;;;5116457;27;20401;-37
2021/12/20 04:06:41;;;;;;;16.50;11.52;;;;;;;;;;5113086;27;20072;-37
2021/12/20 04:09:06;;;;;;;19.20;11.60;;;;;;;;;;5116781;27;20019;-37
2021/12/20 04:11:32;;;;;;;10.98;9.82;;;;;;;;;;5116999;27;20432;-38
2021/12/20 04:13:58;;;;;;;15.95;10.80;;;;;;;;;;5112988;27;20046;-38
2021/12/20 04:16:23;;;;;;;16.65;9.18;;;;;;;;;;5112760;27;20031;-37
2021/12/20 04:18:48;;;;;;;13.23;8.57;;;;;;;;;;5115385;27;20059;-37
2021/12/20 04:21:14;;;;;;;9.48;7.65;;;;;;;;;;5114819;27;20055;-37
2021/12/20 04:23:39;;;;;;;10.52;8.63;;;;;;;;;;5118134;27;20115;-37
2021/12/20 04:26:04;;;;;;;11.35;7.32;;;;;;;;;;5117266;27;20015;-37
2021/12/20 04:28:30;;;;;;;10.20;8.15;;;;;;;;;;5117370;27;20026;-37
2021/12/20 04:30:55;;;;;;;9.10;7.90;;;;;;;;;;5114694;27;20135;-38
2021/12/20 04:33:20;;;;;;;16.33;8.77;;;;;;;;;;5110494;27;20034;-37
2021/12/20 04:35:46;;;;;;;13.73;8.15;;;;;;;;;;5116530;27;20313;-37
2021/12/20 04:38:12;;;;;;;14.35;10.00;;;;;;;;;;5111357;27;20072;-38
2021/12/20 04:40:37;;;;;;;16.77;6.97;;;;;;;;;;5115882;27;20042;-38
2021/12/20 04:43:03;;;;;;;12.63;7.32;;;;;;;;;;5114528;27;20433;-37
2021/12/20 04:45:29;;;;;;;10.40;6.70;;;;;;;;;;5115492;27;20533;-38
2021/12/20 04:47:55;;;;;;;8.05;5.50;;;;;;;;;;5116097;27;20028;-37
2021/12/20 04:50:21;;;;;;;7.07;4.75;;;;;;;;;;5115019;27;20020;-37
2021/12/20 04:52:47;;;;;;;9.60;6.82;;;;;;;;;;5112544;27;20028;-38
2021/12/20 04:55:12;;;;;;;7.97;3.08;;;;;;;;;;5112826;27;20165;-37
2021/12/20 04:57:38;;;;;;;15.10;4.43;;;;;;;;;;5113120;27;20549;-38
2021/12/20 05:00:07;;;;;;;5.70;2.85;;;;;;;;;;5115606;27;20027;-37
2021/12/20 05:02:32;;;;;;;4.22;3.13;;;;;;;;;;5114887;27;20039;-37
2021/12/20 05:04:57;;;;;;;6.13;4.13;;;;;;;;;;5114707;27;20083;-37
2021/12/20 05:07:25;;;;;;;6.88;3.65;;;;;;;;;;5108137;27;20818;-38
2021/12/20 05:09:57;;;;;;;5.13;4.18;;;;;;;;;;5112216;27;20503;-38
2021/12/20 05:12:22;;;;;;;7.18;5.43;;;;;;;;;;5109916;27;20127;-38
2021/12/20 05:14:47;;;;;;;7.25;4.85;;;;;;;;;;5111436;27;20396;-38
2021/12/20 05:17:13;;;;;;;7.70;3.80;;;;;;;;;;5115925;27;20284;-37
2021/12/20 05:19:39;;;;;;;7.35;4.50;;;;;;;;;;5114361;27;20068;-37
2021/12/20 05:22:04;;;;;;;5.97;3.22;;;;;;;;;;5115146;27;20047;-37
2021/12/20 05:24:30;;;;;;;6.22;3.83;;;;;;;;;;5112008;27;20023;-38
2021/12/20 05:26:55;;;;;;;10.75;7.88;;;;;;;;;;5111069;27;20022;-39
2021/12/20 05:29:22;;;;;;;13.60;10.40;;;;;;;;;;5113327;27;20613;-37
2021/12/20 05:31:47;;;;;;;7.40;6.45;;;;;;;;;;5114097;27;20491;-37
2021/12/20 05:34:13;;;;;;;25.17;22.30;;;;;;;;;;5113608;27;20084;-43
2021/12/20 05:36:38;;;;;;;10.57;7.22;;;;;;;;;;5112748;27;20102;-39
2021/12/20 05:39:03;;;;;;;12.32;5.05;;;;;;;;;;5110137;27;20031;-39
2021/12/20 05:41:29;;;;;;;7.53;4.93;;;;;;;;;;5113155;27;20090;-38
2021/12/20 05:43:55;;;;;;;11.55;4.63;;;;;;;;;;5113080;27;20068;-38
2021/12/20 05:46:20;;;;;;;6.72;3.65;;;;;;;;;;5115213;27;20015;-40
2021/12/20 05:48:45;;;;;;;18.50;14.00;;;;;;;;;;5117068;27;20069;-39
2021/12/20 05:51:10;;;;;;;33.00;19.08;;;;;;;;;;5114663;27;20023;-39
2021/12/20 05:53:36;;;;;;;12.55;10.27;;;;;;;;;;5115764;27;20502;-42
2021/12/20 05:56:01;;;;;;;26.38;17.02;;;;;;;;;;5116664;27;20008;-41
2021/12/20 05:58:26;;;;;;;33.25;11.73;;;;;;;;;;5114207;27;20223;-44
2021/12/20 06:00:52;;;;;;;8.70;7.32;;;;;;;;;;5115926;27;20500;-41
2021/12/20 06:03:17;;;;;;;22.45;15.73;;;;;;;;;;5115230;27;20027;-39
2021/12/20 06:05:43;;;;;;;21.65;12.68;;;;;;;;;;5117032;27;20012;-40
2021/12/20 06:08:09;;;;;;;17.02;10.77;;;;;;;;;;5115239;27;20083;-40
2021/12/20 06:10:35;;;;;;;12.32;9.27;;;;;;;;;;5115278;27;20468;-40
2021/12/20 06:13:01;;;;;;;13.15;8.23;;;;;;;;;;5115964;27;20035;-40
2021/12/20 06:15:26;;;;;;;8.70;5.82;;;;;;;;;;5117616;27;20025;-40
2021/12/20 06:17:52;;;;;;;9.00;6.80;;;;;;;;;;5117036;27;20470;-42
2021/12/20 06:20:17;;;;;;;10.20;7.28;;;;;;;;;;5114334;27;20586;-40
2021/12/20 06:22:42;;;;;;;10.27;8.35;;;;;;;;;;5115227;27;20027;-40
2021/12/20 06:25:08;;;;;;;13.82;8.60;;;;;;;;;;5114838;27;20027;-40
2021/12/20 06:27:34;;;;;;;10.70;7.75;;;;;;;;;;5117336;27;20024;-40
2021/12/20 06:29:59;;;;;;;19.80;8.43;;;;;;;;;;5117623;27;20027;-40
2021/12/20 06:32:24;;;;;;;9.05;8.15;;;;;;;;;;5114727;27;20020;-39
2021/12/20 06:34:50;;;;;;;12.55;9.90;;;;;;;;;;5113551;27;20483;-41
2021/12/20 06:37:15;;;;;;;10.25;8.15;;;;;;;;;;5114164;27;20101;-39
2021/12/20 06:39:41;;;;;;;8.18;6.72;;;;;;;;;;5114336;27;20047;-42
2021/12/20 06:42:06;;;;;;;11.93;8.27;;;;;;;;;;5114661;28;20022;-38
2021/12/20 06:44:31;;;;;;;15.52;13.60;;;;;;;;;;5111169;28;20019;-43
2021/12/20 06:46:57;;;;;;;15.43;13.52;;;;;;;;;;5112880;28;20387;-40
2021/12/20 06:49:23;;;;;;;13.90;12.00;;;;;;;;;;5116708;28;20065;-38
2021/12/20 06:51:48;;;;;;;19.10;13.50;;;;;;;;;;5111195;28;20440;-39
2021/12/20 06:54:15;;;;;;;22.25;11.40;;;;;;;;;;5111901;27;20475;-38
2021/12/20 06:56:40;;;;;;;17.83;12.45;;;;;;;;;;5121824;27;20015;-38
2021/12/20 06:59:06;;;;;;;11.52;10.52;;;;;;;;;;5120050;27;20510;-38
2021/12/20 07:01:31;;;;;;;13.80;8.55;;;;;;;;;;5117200;27;20026;-40
2021/12/20 07:03:57;;;;;;;11.35;8.23;;;;;;;;;;5119833;27;20027;-38
2021/12/20 07:06:22;;;;;;;9.70;8.38;;;;;;;;;;5118366;27;20020;-38
2021/12/20 07:08:47;;;;;;;10.27;9.43;;;;;;;;;;5120288;27;20027;-39
2021/12/20 07:11:13;;;;;;;19.48;8.10;;;;;;;;;;5118653;27;20110;-38
2021/12/20 07:13:39;;;;;;;9.95;8.80;;;;;;;;;;5118875;27;20095;-40
2021/12/20 07:16:05;;;;;;;16.05;9.95;;;;;;;;;;5116193;27;20556;-40
2021/12/20 07:18:30;;;;;;;11.32;10.23;;;;;;;;;;5116240;27;20027;-38
2021/12/20 07:20:55;;;;;;;20.85;10.55;;;;;;;;;;5118859;27;20079;-39
2021/12/20 07:23:22;;;;;;;19.10;12.45;;;;;;;;;;5121150;27;20689;-39
2021/12/20 07:25:48;;;;;;;17.85;10.00;;;;;;;;;;5120321;27;20025;-41
2021/12/20 07:28:13;;;;;;;13.27;10.40;;;;;;;;;;5119430;27;20023;-40
2021/12/20 07:30:39;;;;;;;14.45;11.13;;;;;;;;;;5116692;27;20508;-38
2021/12/20 07:33:05;;;;;;;16.75;10.95;;;;;;;;;;5116335;27;20023;-38
2021/12/20 07:35:31;;;;;;;11.73;10.70;;;;;;;;;;5117734;27;20049;-38
2021/12/20 07:37:58;;;;;;;18.33;11.82;;;;;;;;;;5120968;27;20031;-41
2021/12/20 07:40:24;;;;;;;10.85;8.10;;;;;;;;;;5116265;27;20027;-39
2021/12/20 07:42:49;;;;;;;12.57;9.68;;;;;;;;;;5118999;27;20102;-38
2021/12/20 07:45:14;;;;;;;18.40;10.25;;;;;;;;;;5117755;27;20077;-37
2021/12/20 07:47:40;;;;;;;24.27;18.50;;;;;;;;;;5119180;27;20064;-41
2021/12/20 07:50:05;;;;;;;25.55;11.82;;;;;;;;;;5116597;27;20467;-39
2021/12/20 07:52:32;;;;;;;40.40;32.22;;;;;;;;;;5122841;27;20514;-39
2021/12/20 07:54:57;;;;;;;37.60;23.67;;;;;;;;;;5121119;27;20061;-38
2021/12/20 07:57:23;;;;;;;11.35;9.38;;;;;;;;;;5117937;27;20063;-40
2021/12/20 07:59:48;;;;;;;28.40;14.38;;;;;;;;;;5114047;27;20114;-39
2021/12/20 08:02:14;;;;;;;28.73;10.05;;;;;;;;;;5117109;27;20047;-40
2021/12/20 08:04:40;;;;;;;7.93;7.10;;;;;;;;;;5117082;27;20655;-39
2021/12/20 08:07:05;;;;;;;16.25;9.32;;;;;;;;;;5120219;27;20080;-38
2021/12/20 08:09:31;;;;;;;16.42;14.10;;;;;;;;;;5116074;27;20016;-39
2021/12/20 08:11:56;;;;;;;33.47;15.77;;;;;;;;;;5114231;27;20412;-41
2021/12/20 08:14:22;;;;;;;20.55;12.55;;;;;;;;;;5117735;27;20058;-39
2021/12/20 08:16:47;;;;;;;14.45;10.80;;;;;;;;;;5114501;27;20118;-41
2021/12/20 08:19:13;;;;;;;16.58;11.23;;;;;;;;;;5114781;27;20245;-39
2021/12/20 08:21:39;;;;;;;19.17;16.92;;;;;;;;;;5118454;27;20078;-39
2021/12/20 08:24:06;;;;;;;22.35;17.70;;;;;;;;;;5115697;27;20052;-39
2021/12/20 08:26:31;;;;;;;14.77;10.05;;;;;;;;;;5117565;27;20482;-41
2021/12/20 08:28:57;;;;;;;15.80;11.32;;;;;;;;;;5117460;27;20556;-48
2021/12/20 08:31:22;;;;;;;20.27;14.65;;;;;;;;;;5119910;27;20035;-44
2021/12/20 08:33:47;;;;;;;19.20;15.05;;;;;;;;;;5116613;27;20128;-43
2021/12/20 08:36:12;;;;;;;30.35;18.73;;;;;;;;;;5117921;27;20103;-42
2021/12/20 08:38:41;;;;;;;22.35;16.83;;;;;;;;;;5114062;27;20537;-40
2021/12/20 08:41:06;;;;;;;21.02;18.65;;;;;;;;;;5114365;27;20024;-46
2021/12/20 08:43:32;;;;;;;20.90;18.70;;;;;;;;;;5113098;27;20030;-40
2021/12/20 08:45:59;;;;;;;20.95;18.70;;;;;;;;;;5118256;27;20556;-41
2021/12/20 08:48:25;;;;;;;21.10;16.27;;;;;;;;;;5117490;27;20019;-46
2021/12/20 08:50:50;;;;;;;40.97;20.58;;;;;;;;;;5113022;27;20387;-45
2021/12/20 08:53:16;;;;;;;35.00;19.80;;;;;;;;;;5117567;27;20055;-39
2021/12/20 08:55:41;;;;;;;45.80;32.97;;;;;;;;;;5113757;27;20023;-39
2021/12/20 08:58:06;;;;;;;50.85;25.38;;;;;;;;;;5114898;27;20578;-46
2021/12/20 09:00:33;;;;;;;35.08;23.17;;;;;;;;;;5112525;27;20058;-41
2021/12/20 09:02:59;;;;;;;27.80;23.63;;;;;;;;;;5113760;27;20024;-42
2021/12/20 09:05:25;;;;;;;20.20;18.02;;;;;;;;;;5110418;27;20026;-41
2021/12/20 09:07:51;;;;;;;30.15;26.30;;;;;;;;;;5115470;27;20118;-47
2021/12/20 09:10:17;;;;;;;33.28;23.90;;;;;;;;;;5114058;27;20022;-40
2021/12/20 09:12:43;;;;;;;28.88;23.48;;;;;;;;;;5113254;27;20023;-42
2021/12/20 09:15:09;;;;;;;32.78;24.80;;;;;;;;;;5110503;27;20022;-42
2021/12/20 09:17:34;;;;;;;25.45;22.95;;;;;;;;;;5110065;27;20030;-42
2021/12/20 09:19:59;;;;;;;26.58;23.80;;;;;;;;;;5113200;27;20047;-42
2021/12/20 09:22:28;;;;;;;25.73;19.58;;;;;;;;;;5120469;27;20035;-45
2021/12/20 09:24:54;;;;;;;26.90;24.02;;;;;;;;;;5110407;27;20117;-39
2021/12/20 09:27:19;;;;;;;29.60;26.23;;;;;;;;;;5114609;27;20011;-41
2021/12/20 09:29:45;;;;;;;29.88;24.70;;;;;;;;;;5113549;27;20515;-39
2021/12/20 09:32:10;;;;;;;24.15;20.83;;;;;;;;;;5111216;27;20023;-41
2021/12/20 09:34:35;;;;;;;23.42;21.30;;;;;;;;;;5108059;27;20011;-42
2021/12/20 09:37:05;;;;;;;32.60;27.48;;;;;;;;;;5113158;27;20455;-41
2021/12/20 09:39:30;;;;;;;28.67;25.98;;;;;;;;;;5111583;27;20038;-43
2021/12/20 09:42:02;;;;;;;30.05;23.65;;;;;;;;;;5112297;27;20024;-40
2021/12/20 09:44:28;;;;;;;24.75;22.20;;;;;;;;;;5113784;27;20023;-40
2021/12/20 09:46:58;;;;;;;27.48;24.77;;;;;;;;;;5120118;27;20064;-40
2021/12/20 09:49:24;;;;;;;27.83;24.85;;;;;;;;;;5111371;27;20065;-44
2021/12/20 09:51:50;;;;;;;32.00;28.70;;;;;;;;;;5113672;27;20057;-41
2021/12/20 09:54:16;;;;;;;53.20;33.72;;;;;;;;;;5113951;27;20043;-40
2021/12/20 09:56:42;;;;;;;47.00;37.97;;;;;;;;;;5111556;27;20915;-44
2021/12/20 09:59:09;;;;;;;46.28;34.67;;;;;;;;;;5110021;27;20023;-42
2021/12/20 10:01:35;;;;;;;37.40;33.33;;;;;;;;;;5113814;27;20480;-42
2021/12/20 10:04:00;;;;;;;44.47;34.35;;;;;;;;;;5112513;27;20024;-42
2021/12/20 10:06:26;;;;;;;72.30;51.63;;;;;;;;;;5113293;27;20030;-44
2021/12/20 10:08:56;;;;;;;40.92;32.50;;;;;;;;;;5116918;27;20035;-45
2021/12/20 10:11:26;;;;;;;51.67;44.73;;;;;;;;;;5114686;27;20019;-45
2021/12/20 10:14:11;;;;;;;54.97;46.75;;;;;;;;;;5114305;27;20263;-41
2021/12/20 10:16:37;;;;;;;47.70;42.90;;;;;;;;;;5113474;27;20015;-44
2021/12/20 10:19:04;;;;;;;39.78;26.52;;;;;;;;;;5113449;27;20020;-42
2021/12/20 10:21:39;;;;;;;75.13;59.25;;;;;;;;;;5111603;27;20063;-42
2021/12/20 10:24:05;;;;;;;394.15;304.15;;;;;;;;;;5109514;27;20030;-43
2021/12/20 10:26:37;;;;;;;196.10;153.27;;;;;;;;;;5113447;27;20012;-47
2021/12/20 10:29:15;;;;;;;32.50;26.40;;;;;;;;;;5115226;27;20074;-43
2021/12/20 10:31:40;;;;;;;136.20;95.10;;;;;;;;;;5113641;27;20022;-41
2021/12/20 10:34:06;;;;;;;83.00;61.40;;;;;;;;;;5113156;27;20290;-45
2021/12/20 10:36:32;;;;;;;80.90;61.45;;;;;;;;;;5113668;27;20055;-44
2021/12/20 10:39:00;;;;;;;51.00;33.03;;;;;;;;;;5115939;27;20105;-43
2021/12/20 10:41:37;;;;;;;19.83;16.25;;;;;;;;;;5110773;28;20140;-43
2021/12/20 10:44:13;;;;;;;10.00;8.57;;;;;;;;;;5115813;27;20055;-45
2021/12/20 10:46:45;;;;;;;14.27;11.57;;;;;;;;;;5113922;28;20054;-45
2021/12/20 10:49:14;;;;;;;15.80;12.43;;;;;;;;;;5114565;28;20018;-44
2021/12/20 10:51:40;;;;;;;16.85;13.77;;;;;;;;;;5111780;28;20031;-44
2021/12/20 10:54:10;;;;;;;19.58;12.40;;;;;;;;;;5115226;28;20024;-43
2021/12/20 10:56:37;;;;;;;69.88;51.92;;;;;;;;;;5116686;28;20046;-43
2021/12/20 10:59:07;;;;;;;26.73;13.63;;;;;;;;;;5114169;28;20119;-44
2021/12/20 11:04:11;;;;;;;11.85;9.07;;;;;;;;;;5114802;28;20019;-43
2021/12/20 11:09:13;;;;;;;10.95;8.52;;;;;;;;;;5112706;28;20024;-46
2021/12/20 11:11:40;;;;;;;20.08;12.93;;;;;;;;;;5112766;28;20031;-46
2021/12/20 11:14:06;;;;;;;18.75;14.40;;;;;;;;;;5114464;28;20042;-47
2021/12/20 11:16:34;;;;;;;17.42;10.77;;;;;;;;;;5116468;28;20020;-48
2021/12/20 11:19:22;;;;;;;13.50;11.05;;;;;;;;;;5112881;28;20031;-51
2021/12/20 11:21:49;;;;;;;15.13;12.68;;;;;;;;;;5100977;28;20036;-46
2021/12/20 11:24:22;;;;;;;15.98;12.13;;;;;;;;;;5112255;28;20114;-48
2021/12/20 11:26:47;;;;;;;6.88;4.72;;;;;;;;;;5112209;28;20027;-50
2021/12/20 11:29:13;;;;;;;16.00;7.35;;;;;;;;;;5114720;28;20100;-53
2021/12/20 11:31:42;;;;;;;8.73;5.65;;;;;;;;;;5112963;28;20426;-45
2021/12/20 11:34:08;;;;;;;10.75;8.13;;;;;;;;;;5115272;28;20076;-46
2021/12/20 11:36:34;;;;;;;8.07;5.75;;;;;;;;;;5113955;28;20514;-47
2021/12/20 11:39:00;;;;;;;16.60;7.05;;;;;;;;;;5114282;27;20027;-44
2021/12/20 11:41:26;;;;;;;10.15;4.80;;;;;;;;;;5114692;27;20035;-45
2021/12/20 11:43:51;;;;;;;6.18;5.47;;;;;;;;;;5114494;27;20528;-45
2021/12/20 11:46:17;;;;;;;5.00;3.90;;;;;;;;;;5118732;27;20018;-48
2021/12/20 11:48:42;;;;;;;7.32;3.67;;;;;;;;;;5117461;27;20023;-44
2021/12/20 11:51:08;;;;;;;4.07;2.45;;;;;;;;;;5122005;27;20034;-47
2021/12/20 11:53:38;;;;;;;8.40;6.65;;;;;;;;;;5117884;27;20060;-44
2021/12/20 11:56:04;;;;;;;7.80;3.90;;;;;;;;;;5118366;27;20079;-44
2021/12/20 11:58:33;;;;;;;9.15;3.47;;;;;;;;;;5115866;27;20019;-44
2021/12/20 12:01:03;;;;;;;8.05;6.20;;;;;;;;;;5115061;27;20058;-49
2021/12/20 12:03:30;;;;;;;13.98;5.40;;;;;;;;;;5117192;27;20114;-46
2021/12/20 12:05:55;;;;;;;16.30;7.75;;;;;;;;;;5118350;27;20099;-48
2021/12/20 12:08:32;;;;;;;7.70;4.07;;;;;;;;;;5119649;27;20126;-47
2021/12/20 12:11:06;;;;;;;15.52;5.53;;;;;;;;;;5116769;27;20023;-46
2021/12/20 12:13:51;;;;;;;9.77;4.00;;;;;;;;;;5117377;27;20011;-44
2021/12/20 12:16:29;;;;;;;13.95;6.25;;;;;;;;;;5118346;27;20020;-45
2021/12/20 12:18:55;;;;;;;12.48;8.60;;;;;;;;;;5120544;27;20030;-50
2021/12/20 12:21:39;;;;;;;11.77;7.22;;;;;;;;;;5119121;27;20058;-43
2021/12/20 12:24:06;;;;;;;10.80;8.15;;;;;;;;;;5118404;27;20035;-45
2021/12/20 12:26:32;;;;;;;13.23;8.38;;;;;;;;;;5118998;27;20465;-51
2021/12/20 12:28:58;;;;;;;13.27;5.18;;;;;;;;;;5118568;27;20379;-44
2021/12/20 12:31:24;;;;;;;9.00;7.55;;;;;;;;;;5117994;27;20079;-44
2021/12/20 12:34:09;;;;;;;13.90;10.20;;;;;;;;;;5115839;27;20152;-45
2021/12/20 12:36:40;;;;;;;5.00;4.20;;;;;;;;;;5119110;27;20483;-47
2021/12/20 12:39:10;;;;;;;14.18;4.57;;;;;;;;;;5114945;27;20030;-48
2021/12/20 12:41:46;;;;;;;5.53;4.63;;;;;;;;;;5118025;27;20043;-49
2021/12/20 12:44:17;;;;;;;8.65;5.75;;;;;;;;;;5117037;27;20027;-45
2021/12/20 12:46:43;;;;;;;;;;;;;;;;;;5118980;27;20024;-46
2021/12/20 12:49:21;;;;;;;27.98;23.13;;;;;;;;;;5118741;27;19907;-45
2021/12/20 12:52:00;;;;;;;24.52;14.90;;;;;;;;;;5113672;27;20106;-43
2021/12/20 12:54:32;;;;;;;21.50;19.30;;;;;;;;;;5115639;27;20024;-46
2021/12/20 12:57:09;;;;;;;16.17;10.75;;;;;;;;;;5114946;27;20027;-43
2021/12/20 12:59:40;;;;;;;20.92;9.48;;;;;;;;;;5112300;27;20024;-45
2021/12/20 13:02:09;;;;;;;8.45;6.38;;;;;;;;;;5113327;27;20038;-47
2021/12/20 13:04:47;;;;;;;5.25;3.78;;;;;;;;;;5118797;27;20011;-47
2021/12/20 13:07:24;;;;;;;6.65;4.80;;;;;;;;;;5116033;27;20439;-44
2021/12/20 13:09:50;;;;;;;6.05;4.95;;;;;;;;;;5111836;27;20011;-43
2021/12/20 13:12:20;;;;;;;16.65;7.82;;;;;;;;;;5117546;27;20023;-42
2021/12/20 13:14:54;;;;;;;9.32;5.53;;;;;;;;;;5118163;27;20031;-46
2021/12/20 13:17:30;;;;;;;14.55;5.18;;;;;;;;;;5117634;27;20031;-47
2021/12/20 13:20:20;;;;;;;5.05;3.97;;;;;;;;;;5116889;27;20332;-42
2021/12/20 13:22:56;;;;;;;6.63;4.40;;;;;;;;;;5115483;27;20160;-43
2021/12/20 13:25:50;;;;;;;9.07;6.78;;;;;;;;;;5114112;27;20484;-46
2021/12/20 13:28:20;;;;;;;16.80;7.28;;;;;;;;;;5096024;27;20063;-42
2021/12/20 13:30:47;;;;;;;8.90;6.05;;;;;;;;;;5115406;27;20019;-45
2021/12/20 13:33:14;;;;;;;13.30;5.50;;;;;;;;;;5113626;27;20042;-42
2021/12/20 13:35:40;;;;;;;5.20;3.45;;;;;;;;;;5113274;27;20030;-41
2021/12/20 13:38:15;;;;;;;4.75;3.60;;;;;;;;;;5116032;27;20029;-46
2021/12/20 13:40:41;;;;;;;8.00;4.40;;;;;;;;;;5116384;27;20048;-47
2021/12/20 13:43:09;;;;;;;8.88;7.05;;;;;;;;;;5114057;27;20030;-48
2021/12/20 13:45:35;;;;;;;6.40;5.32;;;;;;;;;;5113791;27;20023;-43
2021/12/20 13:48:00;;;;;;;5.07;3.42;;;;;;;;;;5113336;27;20038;-46
2021/12/20 13:50:25;;;;;;;6.03;3.67;;;;;;;;;;5117268;27;20019;-45
2021/12/20 13:52:51;;;;;;;6.40;4.38;;;;;;;;;;5116406;27;20072;-44
2021/12/20 13:55:16;;;;;;;5.72;4.65;;;;;;;;;;5119805;27;20015;-42
2021/12/20 13:57:43;;;;;;;5.50;3.70;;;;;;;;;;5117586;27;20400;-44
2021/12/20 14:00:09;;;;;;;11.27;4.97;;;;;;;;;;5115370;27;20015;-46
2021/12/20 14:02:37;;;;;;;13.10;6.20;;;;;;;;;;5115465;27;20011;-42
2021/12/20 14:05:11;;;;;;;8.30;4.00;;;;;;;;;;5114706;27;20019;-41
2021/12/20 14:07:41;;;;;;;12.45;5.18;;;;;;;;;;5112229;27;20027;-47
2021/12/20 14:10:15;;;;;;;14.75;10.48;;;;;;;;;;5114399;27;20383;-42
2021/12/20 14:12:40;;;;;;;7.38;5.38;;;;;;;;;;5113684;27;20074;-43
2021/12/20 14:15:08;;;;;;;8.75;5.55;;;;;;;;;;5099400;27;20528;-44
2021/12/20 14:18:09;;;;;;;8.70;4.45;;;;;;;;;;5120156;27;20019;-43
2021/12/20 14:20:37;;;;;;;11.20;6.55;;;;;;;;;;5036931;28;20148;-45
2021/12/20 14:23:03;;;;;;;9.75;6.60;;;;;;;;;;5101799;27;20038;-45
2021/12/20 14:25:54;;;;;;;11.52;8.63;;;;;;;;;;5114668;27;20024;-45
2021/12/20 14:28:20;;;;;;;;;;;;;;;;;;5078411;27;20652;-46
2021/12/20 14:30:49;;;;;;;6.97;5.25;;;;;;;;;;5114973;27;19961;-46
2021/12/20 14:33:17;;;;;;;16.05;6.97;;;;;;;;;;5115429;27;20038;-42
2021/12/20 14:35:48;;;;;;;9.32;5.55;;;;;;;;;;5113666;27;20024;-46
2021/12/20 14:38:14;;;;;;;;;;;;;;;;;;5106429;27;20110;-43
2021/12/20 14:40:44;;;;;;;6.35;5.13;;;;;;;;;;5112923;27;20002;-42
2021/12/20 14:43:14;;;;;;;11.20;8.93;;;;;;;;;;5116324;27;20114;-44
2021/12/20 14:45:40;;;;;;;11.80;6.85;;;;;;;;;;5115183;28;20064;-44